sensor_id;sensor_type;location;lat;lon;timestamp;P1;durP1;ratioP1;P2;durP2;ratioP2
13311;SDS011;34033;48.672;9.376;2023-11-22T00:00:43;2.47;;;2.07;;
13311;SDS011;34033;48.672;9.376;2023-11-22T00:03:08;2.53;;;2.20;;
13311;SDS011;34033;48.672;9.376;2023-11-22T00:05:34;3.20;;;2.17;;
13311;SDS011;34033;48.672;9.376;2023-11-22T00:07:59;2.97;;;2.33;;
13311;SDS011;34033;48.672;9.376;2023-11-22T00:10:24;2.90;;;2.27;;
13311;SDS011;34033;48.672;9.376;2023-11-22T00:12:50;3.40;;;2.20;;
13311;SDS011;34033;48.672;9.376;2023-11-22T00:15:15;2.03;;;1.93;;
13311;SDS011;34033;48.672;9.376;2023-11-22T00:17:43;6.27;;;2.50;;
13311;SDS011;34033;48.672;9.376;2023-11-22T00:20:09;2.57;;;2.37;;
13311;SDS011;34033;48.672;9.376;2023-11-22T00:22:35;2.57;;;2.20;;
13311;SDS011;34033;48.672;9.376;2023-11-22T00:25:01;3.63;;;2.40;;
13311;SDS011;34033;48.672;9.376;2023-11-22T00:27:30;4.17;;;2.20;;
13311;SDS011;34033;48.672;9.376;2023-11-22T00:29:58;2.33;;;2.13;;
13311;SDS011;34033;48.672;9.376;2023-11-22T00:32:24;2.53;;;2.33;;
13311;SDS011;34033;48.672;9.376;2023-11-22T00:34:50;5.03;;;2.57;;
13311;SDS011;34033;48.672;9.376;2023-11-22T00:37:16;2.37;;;2.10;;
13311;SDS011;34033;48.672;9.376;2023-11-22T00:39:41;4.17;;;2.00;;
13311;SDS011;34033;48.672;9.376;2023-11-22T00:42:09;2.33;;;2.03;;
13311;SDS011;34033;48.672;9.376;2023-11-22T00:44:35;2.33;;;2.03;;
13311;SDS011;34033;48.672;9.376;2023-11-22T00:47:03;2.03;;;1.90;;
13311;SDS011;34033;48.672;9.376;2023-11-22T00:49:29;1.10;;;1.10;;
13311;SDS011;34033;48.672;9.376;2023-11-22T00:51:54;0.90;;;0.87;;
13311;SDS011;34033;48.672;9.376;2023-11-22T00:54:19;0.67;;;0.67;;
13311;SDS011;34033;48.672;9.376;2023-11-22T00:56:45;0.90;;;0.90;;
13311;SDS011;34033;48.672;9.376;2023-11-22T00:59:11;1.10;;;1.00;;
13311;SDS011;34033;48.672;9.376;2023-11-22T01:01:37;0.90;;;0.90;;
13311;SDS011;34033;48.672;9.376;2023-11-22T01:04:02;1.07;;;1.00;;
13311;SDS011;34033;48.672;9.376;2023-11-22T01:06:28;0.80;;;0.80;;
13311;SDS011;34033;48.672;9.376;2023-11-22T01:08:54;0.80;;;0.80;;
13311;SDS011;34033;48.672;9.376;2023-11-22T01:11:19;0.80;;;0.80;;
13311;SDS011;34033;48.672;9.376;2023-11-22T01:13:44;1.20;;;1.10;;
13311;SDS011;34033;48.672;9.376;2023-11-22T01:16:11;1.10;;;1.00;;
13311;SDS011;34033;48.672;9.376;2023-11-22T01:18:38;1.10;;;1.10;;
13311;SDS011;34033;48.672;9.376;2023-11-22T01:21:04;1.10;;;1.00;;
13311;SDS011;34033;48.672;9.376;2023-11-22T01:23:30;0.80;;;0.80;;
13311;SDS011;34033;48.672;9.376;2023-11-22T01:25:56;0.90;;;0.90;;
13311;SDS011;34033;48.672;9.376;2023-11-22T01:28:23;0.80;;;0.80;;
13311;SDS011;34033;48.672;9.376;2023-11-22T01:30:49;1.00;;;0.90;;
13311;SDS011;34033;48.672;9.376;2023-11-22T01:33:14;1.30;;;1.20;;
13311;SDS011;34033;48.672;9.376;2023-11-22T01:35:40;1.20;;;1.10;;
13311;SDS011;34033;48.672;9.376;2023-11-22T01:38:06;0.93;;;0.93;;
13311;SDS011;34033;48.672;9.376;2023-11-22T01:40:33;1.13;;;1.13;;
13311;SDS011;34033;48.672;9.376;2023-11-22T01:42:59;1.10;;;0.90;;
13311;SDS011;34033;48.672;9.376;2023-11-22T01:45:24;1.27;;;1.10;;
13311;SDS011;34033;48.672;9.376;2023-11-22T01:47:50;1.10;;;1.00;;
13311;SDS011;34033;48.672;9.376;2023-11-22T01:50:16;0.90;;;0.90;;
13311;SDS011;34033;48.672;9.376;2023-11-22T01:52:42;1.17;;;1.17;;
13311;SDS011;34033;48.672;9.376;2023-11-22T01:55:08;0.73;;;0.73;;
13311;SDS011;34033;48.672;9.376;2023-11-22T01:57:34;1.80;;;1.00;;
13311;SDS011;34033;48.672;9.376;2023-11-22T02:00:03;0.87;;;0.87;;
13311;SDS011;34033;48.672;9.376;2023-11-22T02:02:32;1.00;;;1.00;;
13311;SDS011;34033;48.672;9.376;2023-11-22T02:05:01;2.33;;;1.67;;
13311;SDS011;34033;48.672;9.376;2023-11-22T02:07:27;1.43;;;1.33;;
13311;SDS011;34033;48.672;9.376;2023-11-22T02:09:53;1.20;;;1.13;;
13311;SDS011;34033;48.672;9.376;2023-11-22T02:12:18;0.90;;;0.90;;
13311;SDS011;34033;48.672;9.376;2023-11-22T02:14:44;1.43;;;1.30;;
13311;SDS011;34033;48.672;9.376;2023-11-22T02:17:10;0.87;;;0.87;;
13311;SDS011;34033;48.672;9.376;2023-11-22T02:19:36;1.10;;;1.10;;
13311;SDS011;34033;48.672;9.376;2023-11-22T02:22:02;0.83;;;0.83;;
13311;SDS011;34033;48.672;9.376;2023-11-22T02:24:27;1.03;;;1.03;;
13311;SDS011;34033;48.672;9.376;2023-11-22T02:26:52;1.67;;;1.30;;
13311;SDS011;34033;48.672;9.376;2023-11-22T02:29:18;1.00;;;1.00;;
13311;SDS011;34033;48.672;9.376;2023-11-22T02:31:43;1.33;;;1.27;;
13311;SDS011;34033;48.672;9.376;2023-11-22T02:34:09;0.87;;;0.87;;
13311;SDS011;34033;48.672;9.376;2023-11-22T02:36:34;1.23;;;1.20;;
13311;SDS011;34033;48.672;9.376;2023-11-22T02:38:59;1.33;;;1.23;;
13311;SDS011;34033;48.672;9.376;2023-11-22T02:41:26;0.97;;;0.97;;
13311;SDS011;34033;48.672;9.376;2023-11-22T02:43:54;1.07;;;1.00;;
13311;SDS011;34033;48.672;9.376;2023-11-22T02:46:20;1.47;;;1.00;;
13311;SDS011;34033;48.672;9.376;2023-11-22T02:48:45;1.07;;;1.07;;
13311;SDS011;34033;48.672;9.376;2023-11-22T02:51:10;0.80;;;0.80;;
13311;SDS011;34033;48.672;9.376;2023-11-22T02:53:36;1.40;;;1.27;;
13311;SDS011;34033;48.672;9.376;2023-11-22T02:56:02;0.73;;;0.73;;
13311;SDS011;34033;48.672;9.376;2023-11-22T02:58:29;1.03;;;1.00;;
13311;SDS011;34033;48.672;9.376;2023-11-22T03:00:54;0.93;;;0.93;;
13311;SDS011;34033;48.672;9.376;2023-11-22T03:03:22;1.33;;;1.23;;
13311;SDS011;34033;48.672;9.376;2023-11-22T03:05:48;1.10;;;1.10;;
13311;SDS011;34033;48.672;9.376;2023-11-22T03:08:15;1.30;;;1.27;;
13311;SDS011;34033;48.672;9.376;2023-11-22T03:10:41;1.07;;;1.07;;
13311;SDS011;34033;48.672;9.376;2023-11-22T03:13:07;1.53;;;1.40;;
13311;SDS011;34033;48.672;9.376;2023-11-22T03:15:33;1.40;;;1.30;;
13311;SDS011;34033;48.672;9.376;2023-11-22T03:17:59;1.10;;;1.10;;
13311;SDS011;34033;48.672;9.376;2023-11-22T03:20:24;1.23;;;1.10;;
13311;SDS011;34033;48.672;9.376;2023-11-22T03:22:50;1.10;;;1.10;;
13311;SDS011;34033;48.672;9.376;2023-11-22T03:25:15;1.20;;;1.20;;
13311;SDS011;34033;48.672;9.376;2023-11-22T03:27:41;1.10;;;1.10;;
13311;SDS011;34033;48.672;9.376;2023-11-22T03:30:07;1.40;;;1.17;;
13311;SDS011;34033;48.672;9.376;2023-11-22T03:32:39;1.30;;;0.90;;
13311;SDS011;34033;48.672;9.376;2023-11-22T03:35:05;1.13;;;1.10;;
13311;SDS011;34033;48.672;9.376;2023-11-22T03:37:31;1.17;;;1.17;;
13311;SDS011;34033;48.672;9.376;2023-11-22T03:39:57;2.43;;;1.37;;
13311;SDS011;34033;48.672;9.376;2023-11-22T03:42:23;1.30;;;1.20;;
13311;SDS011;34033;48.672;9.376;2023-11-22T03:44:48;1.13;;;1.10;;
13311;SDS011;34033;48.672;9.376;2023-11-22T03:47:14;1.27;;;1.17;;
13311;SDS011;34033;48.672;9.376;2023-11-22T03:49:40;0.90;;;0.90;;
13311;SDS011;34033;48.672;9.376;2023-11-22T03:52:06;0.97;;;0.93;;
13311;SDS011;34033;48.672;9.376;2023-11-22T03:54:33;0.73;;;0.73;;
13311;SDS011;34033;48.672;9.376;2023-11-22T03:56:58;0.83;;;0.83;;
13311;SDS011;34033;48.672;9.376;2023-11-22T03:59:24;2.17;;;1.03;;
13311;SDS011;34033;48.672;9.376;2023-11-22T04:01:49;1.13;;;1.10;;
13311;SDS011;34033;48.672;9.376;2023-11-22T04:04:15;1.30;;;1.20;;
13311;SDS011;34033;48.672;9.376;2023-11-22T04:06:41;0.90;;;0.90;;
13311;SDS011;34033;48.672;9.376;2023-11-22T04:09:06;0.80;;;0.80;;
13311;SDS011;34033;48.672;9.376;2023-11-22T04:11:33;0.90;;;0.90;;
13311;SDS011;34033;48.672;9.376;2023-11-22T04:13:59;0.73;;;0.73;;
13311;SDS011;34033;48.672;9.376;2023-11-22T04:16:25;0.93;;;0.93;;
13311;SDS011;34033;48.672;9.376;2023-11-22T04:18:50;0.87;;;0.87;;
13311;SDS011;34033;48.672;9.376;2023-11-22T04:21:15;1.27;;;1.17;;
13311;SDS011;34033;48.672;9.376;2023-11-22T04:23:41;1.00;;;0.93;;
13311;SDS011;34033;48.672;9.376;2023-11-22T04:26:07;0.73;;;0.73;;
13311;SDS011;34033;48.672;9.376;2023-11-22T04:28:32;1.00;;;1.00;;
13311;SDS011;34033;48.672;9.376;2023-11-22T04:30:58;0.90;;;0.90;;
13311;SDS011;34033;48.672;9.376;2023-11-22T04:33:24;0.80;;;0.80;;
13311;SDS011;34033;48.672;9.376;2023-11-22T04:35:50;1.00;;;1.00;;
13311;SDS011;34033;48.672;9.376;2023-11-22T04:38:16;0.80;;;0.80;;
13311;SDS011;34033;48.672;9.376;2023-11-22T04:40:41;1.13;;;1.03;;
13311;SDS011;34033;48.672;9.376;2023-11-22T04:43:09;0.80;;;0.80;;
13311;SDS011;34033;48.672;9.376;2023-11-22T04:45:34;1.13;;;1.10;;
13311;SDS011;34033;48.672;9.376;2023-11-22T04:48:00;0.93;;;0.83;;
13311;SDS011;34033;48.672;9.376;2023-11-22T04:50:25;2.17;;;1.20;;
13311;SDS011;34033;48.672;9.376;2023-11-22T04:52:51;1.37;;;1.27;;
13311;SDS011;34033;48.672;9.376;2023-11-22T04:55:16;1.63;;;1.50;;
13311;SDS011;34033;48.672;9.376;2023-11-22T04:57:42;1.40;;;1.30;;
13311;SDS011;34033;48.672;9.376;2023-11-22T05:00:08;1.30;;;1.20;;
13311;SDS011;34033;48.672;9.376;2023-11-22T05:02:34;1.37;;;1.20;;
13311;SDS011;34033;48.672;9.376;2023-11-22T05:05:00;1.10;;;1.10;;
13311;SDS011;34033;48.672;9.376;2023-11-22T05:07:25;1.30;;;1.20;;
13311;SDS011;34033;48.672;9.376;2023-11-22T05:09:50;1.43;;;1.20;;
13311;SDS011;34033;48.672;9.376;2023-11-22T05:12:16;0.90;;;0.90;;
13311;SDS011;34033;48.672;9.376;2023-11-22T05:14:41;1.10;;;1.00;;
13311;SDS011;34033;48.672;9.376;2023-11-22T05:17:08;0.70;;;0.70;;
13311;SDS011;34033;48.672;9.376;2023-11-22T05:19:34;1.00;;;0.90;;
13311;SDS011;34033;48.672;9.376;2023-11-22T05:21:59;0.83;;;0.83;;
13311;SDS011;34033;48.672;9.376;2023-11-22T05:24:25;0.90;;;0.90;;
13311;SDS011;34033;48.672;9.376;2023-11-22T05:26:51;0.80;;;0.80;;
13311;SDS011;34033;48.672;9.376;2023-11-22T05:29:16;1.07;;;1.07;;
13311;SDS011;34033;48.672;9.376;2023-11-22T05:31:42;0.97;;;0.97;;
13311;SDS011;34033;48.672;9.376;2023-11-22T05:34:07;0.60;;;0.60;;
13311;SDS011;34033;48.672;9.376;2023-11-22T05:36:33;0.93;;;0.93;;
13311;SDS011;34033;48.672;9.376;2023-11-22T05:38:58;1.90;;;1.10;;
13311;SDS011;34033;48.672;9.376;2023-11-22T05:41:24;0.97;;;0.97;;
13311;SDS011;34033;48.672;9.376;2023-11-22T05:43:53;0.70;;;0.70;;
13311;SDS011;34033;48.672;9.376;2023-11-22T05:46:22;1.00;;;1.00;;
13311;SDS011;34033;48.672;9.376;2023-11-22T05:48:52;0.90;;;0.90;;
13311;SDS011;34033;48.672;9.376;2023-11-22T05:51:18;1.73;;;1.20;;
13311;SDS011;34033;48.672;9.376;2023-11-22T05:53:43;1.10;;;1.00;;
13311;SDS011;34033;48.672;9.376;2023-11-22T05:56:09;0.93;;;0.93;;
13311;SDS011;34033;48.672;9.376;2023-11-22T05:58:34;0.93;;;0.93;;
13311;SDS011;34033;48.672;9.376;2023-11-22T06:01:03;1.00;;;1.00;;
13311;SDS011;34033;48.672;9.376;2023-11-22T06:03:31;0.90;;;0.90;;
13311;SDS011;34033;48.672;9.376;2023-11-22T06:05:57;1.60;;;1.17;;
13311;SDS011;34033;48.672;9.376;2023-11-22T06:08:23;1.23;;;1.10;;
13311;SDS011;34033;48.672;9.376;2023-11-22T06:10:49;1.00;;;1.00;;
13311;SDS011;34033;48.672;9.376;2023-11-22T06:13:14;1.03;;;1.00;;
13311;SDS011;34033;48.672;9.376;2023-11-22T06:15:40;1.00;;;1.00;;
13311;SDS011;34033;48.672;9.376;2023-11-22T06:18:05;1.40;;;1.30;;
13311;SDS011;34033;48.672;9.376;2023-11-22T06:20:31;0.90;;;0.90;;
13311;SDS011;34033;48.672;9.376;2023-11-22T06:22:56;1.13;;;1.07;;
13311;SDS011;34033;48.672;9.376;2023-11-22T06:25:21;1.00;;;0.90;;
13311;SDS011;34033;48.672;9.376;2023-11-22T06:27:47;1.27;;;1.17;;
13311;SDS011;34033;48.672;9.376;2023-11-22T06:30:12;1.67;;;1.17;;
13311;SDS011;34033;48.672;9.376;2023-11-22T06:32:39;0.83;;;0.83;;
13311;SDS011;34033;48.672;9.376;2023-11-22T06:35:04;1.03;;;1.03;;
13311;SDS011;34033;48.672;9.376;2023-11-22T06:37:33;1.23;;;1.13;;
13311;SDS011;34033;48.672;9.376;2023-11-22T06:39:59;0.83;;;0.83;;
13311;SDS011;34033;48.672;9.376;2023-11-22T06:42:24;0.93;;;0.93;;
13311;SDS011;34033;48.672;9.376;2023-11-22T06:44:50;0.93;;;0.90;;
13311;SDS011;34033;48.672;9.376;2023-11-22T06:47:17;0.90;;;0.90;;
13311;SDS011;34033;48.672;9.376;2023-11-22T06:49:43;0.97;;;0.97;;
13311;SDS011;34033;48.672;9.376;2023-11-22T06:52:09;1.53;;;1.10;;
13311;SDS011;34033;48.672;9.376;2023-11-22T06:54:34;1.00;;;1.00;;
13311;SDS011;34033;48.672;9.376;2023-11-22T06:57:00;1.43;;;1.00;;
13311;SDS011;34033;48.672;9.376;2023-11-22T06:59:25;1.07;;;0.83;;
13311;SDS011;34033;48.672;9.376;2023-11-22T07:01:51;0.90;;;0.90;;
13311;SDS011;34033;48.672;9.376;2023-11-22T07:04:16;0.90;;;0.90;;
13311;SDS011;34033;48.672;9.376;2023-11-22T07:06:41;1.17;;;1.07;;
13311;SDS011;34033;48.672;9.376;2023-11-22T07:09:09;0.90;;;0.90;;
13311;SDS011;34033;48.672;9.376;2023-11-22T07:11:35;1.80;;;1.27;;
13311;SDS011;34033;48.672;9.376;2023-11-22T07:14:02;1.33;;;1.27;;
13311;SDS011;34033;48.672;9.376;2023-11-22T07:16:28;1.40;;;1.13;;
13311;SDS011;34033;48.672;9.376;2023-11-22T07:18:54;1.23;;;1.20;;
13311;SDS011;34033;48.672;9.376;2023-11-22T07:21:19;2.00;;;1.20;;
13311;SDS011;34033;48.672;9.376;2023-11-22T07:23:45;1.13;;;1.10;;
13311;SDS011;34033;48.672;9.376;2023-11-22T07:26:11;0.70;;;0.70;;
13311;SDS011;34033;48.672;9.376;2023-11-22T07:28:39;1.17;;;1.10;;
13311;SDS011;34033;48.672;9.376;2023-11-22T07:31:06;0.80;;;0.80;;
13311;SDS011;34033;48.672;9.376;2023-11-22T07:33:32;1.67;;;1.30;;
13311;SDS011;34033;48.672;9.376;2023-11-22T07:35:58;1.57;;;0.90;;
13311;SDS011;34033;48.672;9.376;2023-11-22T07:38:24;1.00;;;1.00;;
13311;SDS011;34033;48.672;9.376;2023-11-22T07:40:49;1.00;;;1.00;;
13311;SDS011;34033;48.672;9.376;2023-11-22T07:43:16;1.07;;;0.80;;
13311;SDS011;34033;48.672;9.376;2023-11-22T07:45:41;0.93;;;0.93;;
13311;SDS011;34033;48.672;9.376;2023-11-22T07:48:08;0.50;;;0.50;;
13311;SDS011;34033;48.672;9.376;2023-11-22T07:50:37;0.90;;;0.90;;
13311;SDS011;34033;48.672;9.376;2023-11-22T07:53:02;0.80;;;0.80;;
13311;SDS011;34033;48.672;9.376;2023-11-22T07:55:29;0.70;;;0.70;;
13311;SDS011;34033;48.672;9.376;2023-11-22T07:57:55;1.30;;;1.20;;
13311;SDS011;34033;48.672;9.376;2023-11-22T08:00:20;0.80;;;0.80;;
13311;SDS011;34033;48.672;9.376;2023-11-22T08:02:46;0.60;;;0.60;;
13311;SDS011;34033;48.672;9.376;2023-11-22T08:05:11;1.13;;;0.73;;
13311;SDS011;34033;48.672;9.376;2023-11-22T08:07:40;1.80;;;0.80;;
13311;SDS011;34033;48.672;9.376;2023-11-22T08:10:06;0.60;;;0.60;;
13311;SDS011;34033;48.672;9.376;2023-11-22T08:12:47;1.00;;;1.00;;
13311;SDS011;34033;48.672;9.376;2023-11-22T08:15:15;1.33;;;1.10;;
13311;SDS011;34033;48.672;9.376;2023-11-22T08:17:41;1.10;;;1.10;;
13311;SDS011;34033;48.672;9.376;2023-11-22T08:20:08;1.30;;;1.20;;
13311;SDS011;34033;48.672;9.376;2023-11-22T08:22:41;0.93;;;0.93;;
13311;SDS011;34033;48.672;9.376;2023-11-22T08:25:07;1.20;;;1.00;;
13311;SDS011;34033;48.672;9.376;2023-11-22T08:27:33;0.97;;;0.97;;
13311;SDS011;34033;48.672;9.376;2023-11-22T08:29:59;0.93;;;0.93;;
13311;SDS011;34033;48.672;9.376;2023-11-22T08:32:29;0.73;;;0.70;;
13311;SDS011;34033;48.672;9.376;2023-11-22T08:34:56;1.27;;;1.03;;
13311;SDS011;34033;48.672;9.376;2023-11-22T08:37:21;0.80;;;0.80;;
13311;SDS011;34033;48.672;9.376;2023-11-22T08:39:47;0.93;;;0.93;;
13311;SDS011;34033;48.672;9.376;2023-11-22T08:42:12;1.97;;;1.30;;
13311;SDS011;34033;48.672;9.376;2023-11-22T08:44:38;1.30;;;1.00;;
13311;SDS011;34033;48.672;9.376;2023-11-22T08:47:03;0.80;;;0.80;;
13311;SDS011;34033;48.672;9.376;2023-11-22T08:49:29;0.90;;;0.90;;
13311;SDS011;34033;48.672;9.376;2023-11-22T08:51:55;1.20;;;0.90;;
13311;SDS011;34033;48.672;9.376;2023-11-22T08:54:21;0.90;;;0.90;;
13311;SDS011;34033;48.672;9.376;2023-11-22T08:56:46;0.90;;;0.90;;
13311;SDS011;34033;48.672;9.376;2023-11-22T08:59:12;1.10;;;1.10;;
13311;SDS011;34033;48.672;9.376;2023-11-22T09:01:38;1.20;;;1.10;;
13311;SDS011;34033;48.672;9.376;2023-11-22T09:04:03;1.00;;;1.00;;
13311;SDS011;34033;48.672;9.376;2023-11-22T09:06:30;1.47;;;1.10;;
13311;SDS011;34033;48.672;9.376;2023-11-22T09:08:56;1.60;;;1.40;;
13311;SDS011;34033;48.672;9.376;2023-11-22T09:11:21;3.10;;;0.97;;
13311;SDS011;34033;48.672;9.376;2023-11-22T09:13:47;3.47;;;1.27;;
13311;SDS011;34033;48.672;9.376;2023-11-22T09:16:15;1.27;;;1.17;;
13311;SDS011;34033;48.672;9.376;2023-11-22T09:18:41;1.67;;;0.93;;
13311;SDS011;34033;48.672;9.376;2023-11-22T09:21:07;1.77;;;1.13;;
13311;SDS011;34033;48.672;9.376;2023-11-22T09:23:34;1.30;;;1.20;;
13311;SDS011;34033;48.672;9.376;2023-11-22T09:26:00;2.33;;;0.97;;
13311;SDS011;34033;48.672;9.376;2023-11-22T09:28:26;1.03;;;1.00;;
13311;SDS011;34033;48.672;9.376;2023-11-22T09:30:52;1.17;;;1.10;;
13311;SDS011;34033;48.672;9.376;2023-11-22T09:33:17;0.73;;;0.73;;
13311;SDS011;34033;48.672;9.376;2023-11-22T09:35:44;1.00;;;1.00;;
13311;SDS011;34033;48.672;9.376;2023-11-22T09:38:11;1.30;;;1.20;;
13311;SDS011;34033;48.672;9.376;2023-11-22T09:43:05;0.90;;;0.90;;
13311;SDS011;34033;48.672;9.376;2023-11-22T09:45:30;1.10;;;1.10;;
13311;SDS011;34033;48.672;9.376;2023-11-22T09:47:56;0.97;;;0.97;;
13311;SDS011;34033;48.672;9.376;2023-11-22T09:56:19;1.30;;;1.10;;
13311;SDS011;34033;48.672;9.376;2023-11-22T09:58:45;1.03;;;1.03;;
13311;SDS011;34033;48.672;9.376;2023-11-22T10:01:13;1.20;;;1.10;;
13311;SDS011;34033;48.672;9.376;2023-11-22T10:03:39;1.00;;;1.00;;
13311;SDS011;34033;48.672;9.376;2023-11-22T10:06:05;0.90;;;0.90;;
13311;SDS011;34033;48.672;9.376;2023-11-22T10:08:31;1.17;;;1.10;;
13311;SDS011;34033;48.672;9.376;2023-11-22T10:10:58;1.03;;;1.00;;
13311;SDS011;34033;48.672;9.376;2023-11-22T10:13:24;0.90;;;0.90;;
13311;SDS011;34033;48.672;9.376;2023-11-22T10:15:50;2.10;;;1.40;;
13311;SDS011;34033;48.672;9.376;2023-11-22T10:18:19;0.93;;;0.93;;
13311;SDS011;34033;48.672;9.376;2023-11-22T10:20:46;1.00;;;1.00;;
13311;SDS011;34033;48.672;9.376;2023-11-22T10:23:13;1.20;;;1.10;;
13311;SDS011;34033;48.672;9.376;2023-11-22T10:25:49;1.33;;;1.23;;
13311;SDS011;34033;48.672;9.376;2023-11-22T10:28:19;1.20;;;1.10;;
13311;SDS011;34033;48.672;9.376;2023-11-22T10:30:46;1.03;;;1.03;;
13311;SDS011;34033;48.672;9.376;2023-11-22T10:33:13;1.20;;;1.13;;
13311;SDS011;34033;48.672;9.376;2023-11-22T10:35:45;1.97;;;1.33;;
13311;SDS011;34033;48.672;9.376;2023-11-22T10:38:13;1.00;;;1.00;;
13311;SDS011;34033;48.672;9.376;2023-11-22T10:40:40;1.30;;;1.20;;
13311;SDS011;34033;48.672;9.376;2023-11-22T10:43:06;1.30;;;1.20;;
13311;SDS011;34033;48.672;9.376;2023-11-22T10:45:33;1.27;;;1.17;;
13311;SDS011;34033;48.672;9.376;2023-11-22T10:48:00;1.40;;;1.30;;
13311;SDS011;34033;48.672;9.376;2023-11-22T10:50:25;1.27;;;1.17;;
13311;SDS011;34033;48.672;9.376;2023-11-22T10:52:51;1.40;;;1.30;;
13311;SDS011;34033;48.672;9.376;2023-11-22T10:55:20;1.20;;;1.17;;
13311;SDS011;34033;48.672;9.376;2023-11-22T10:57:47;1.20;;;1.20;;
13311;SDS011;34033;48.672;9.376;2023-11-22T11:00:16;1.07;;;1.07;;
13311;SDS011;34033;48.672;9.376;2023-11-22T11:02:47;1.33;;;1.23;;
13311;SDS011;34033;48.672;9.376;2023-11-22T11:05:21;1.33;;;1.23;;
13311;SDS011;34033;48.672;9.376;2023-11-22T11:07:54;1.30;;;1.30;;
13311;SDS011;34033;48.672;9.376;2023-11-22T11:10:26;1.50;;;1.40;;
13311;SDS011;34033;48.672;9.376;2023-11-22T11:12:53;1.97;;;1.23;;
13311;SDS011;34033;48.672;9.376;2023-11-22T11:15:19;1.23;;;1.13;;
13311;SDS011;34033;48.672;9.376;2023-11-22T11:17:46;1.37;;;1.27;;
13311;SDS011;34033;48.672;9.376;2023-11-22T11:20:13;1.37;;;1.27;;
13311;SDS011;34033;48.672;9.376;2023-11-22T11:22:41;1.60;;;1.40;;
13311;SDS011;34033;48.672;9.376;2023-11-22T11:25:06;1.00;;;1.00;;
13311;SDS011;34033;48.672;9.376;2023-11-22T11:27:33;1.43;;;1.33;;
13311;SDS011;34033;48.672;9.376;2023-11-22T11:30:01;2.43;;;1.73;;
13311;SDS011;34033;48.672;9.376;2023-11-22T11:32:46;1.60;;;1.50;;
13311;SDS011;34033;48.672;9.376;2023-11-22T11:35:11;1.03;;;1.03;;
13311;SDS011;34033;48.672;9.376;2023-11-22T11:37:37;1.30;;;1.20;;
13311;SDS011;34033;48.672;9.376;2023-11-22T11:40:24;1.40;;;1.30;;
13311;SDS011;34033;48.672;9.376;2023-11-22T11:42:51;0.97;;;0.97;;
13311;SDS011;34033;48.672;9.376;2023-11-22T11:45:17;1.70;;;1.60;;
13311;SDS011;34033;48.672;9.376;2023-11-22T11:47:42;1.50;;;1.40;;
13311;SDS011;34033;48.672;9.376;2023-11-22T11:50:08;2.53;;;1.20;;
13311;SDS011;34033;48.672;9.376;2023-11-22T11:52:33;1.20;;;1.20;;
13311;SDS011;34033;48.672;9.376;2023-11-22T11:55:00;1.37;;;1.27;;
13311;SDS011;34033;48.672;9.376;2023-11-22T11:57:26;1.33;;;1.30;;
13311;SDS011;34033;48.672;9.376;2023-11-22T11:59:51;1.30;;;1.30;;
13311;SDS011;34033;48.672;9.376;2023-11-22T12:02:18;1.50;;;1.40;;
13311;SDS011;34033;48.672;9.376;2023-11-22T12:04:44;1.10;;;1.10;;
13311;SDS011;34033;48.672;9.376;2023-11-22T12:07:11;1.40;;;1.30;;
13311;SDS011;34033;48.672;9.376;2023-11-22T12:09:37;1.53;;;1.43;;
13311;SDS011;34033;48.672;9.376;2023-11-22T12:12:03;0.87;;;0.87;;
13311;SDS011;34033;48.672;9.376;2023-11-22T12:14:29;1.03;;;1.03;;
13311;SDS011;34033;48.672;9.376;2023-11-22T12:16:54;1.27;;;1.20;;
13311;SDS011;34033;48.672;9.376;2023-11-22T12:19:23;1.30;;;1.20;;
13311;SDS011;34033;48.672;9.376;2023-11-22T12:21:50;1.33;;;1.27;;
13311;SDS011;34033;48.672;9.376;2023-11-22T12:24:16;1.20;;;1.10;;
13311;SDS011;34033;48.672;9.376;2023-11-22T12:26:45;1.27;;;1.20;;
13311;SDS011;34033;48.672;9.376;2023-11-22T12:29:12;2.47;;;1.50;;
13311;SDS011;34033;48.672;9.376;2023-11-22T12:31:44;1.33;;;1.30;;
13311;SDS011;34033;48.672;9.376;2023-11-22T12:34:11;1.40;;;1.30;;
13311;SDS011;34033;48.672;9.376;2023-11-22T12:36:37;1.13;;;1.03;;
13311;SDS011;34033;48.672;9.376;2023-11-22T12:39:06;1.10;;;1.10;;
13311;SDS011;34033;48.672;9.376;2023-11-22T12:41:33;1.50;;;1.40;;
13311;SDS011;34033;48.672;9.376;2023-11-22T12:44:07;1.30;;;1.30;;
13311;SDS011;34033;48.672;9.376;2023-11-22T12:46:49;1.20;;;1.10;;
13311;SDS011;34033;48.672;9.376;2023-11-22T12:49:21;1.27;;;1.17;;
13311;SDS011;34033;48.672;9.376;2023-11-22T12:51:50;1.50;;;1.40;;
13311;SDS011;34033;48.672;9.376;2023-11-22T12:54:17;1.07;;;1.03;;
13311;SDS011;34033;48.672;9.376;2023-11-22T12:56:46;1.43;;;1.30;;
13311;SDS011;34033;48.672;9.376;2023-11-22T12:59:15;1.53;;;1.33;;
13311;SDS011;34033;48.672;9.376;2023-11-22T13:01:40;2.13;;;1.33;;
13311;SDS011;34033;48.672;9.376;2023-11-22T13:04:06;1.73;;;1.63;;
13311;SDS011;34033;48.672;9.376;2023-11-22T13:06:32;1.50;;;1.40;;
13311;SDS011;34033;48.672;9.376;2023-11-22T13:08:57;1.30;;;1.10;;
13311;SDS011;34033;48.672;9.376;2023-11-22T13:11:23;1.37;;;1.23;;
13311;SDS011;34033;48.672;9.376;2023-11-22T13:13:49;1.53;;;1.43;;
13311;SDS011;34033;48.672;9.376;2023-11-22T13:16:15;1.60;;;1.13;;
13311;SDS011;34033;48.672;9.376;2023-11-22T13:18:41;1.30;;;1.20;;
13311;SDS011;34033;48.672;9.376;2023-11-22T13:21:06;1.30;;;1.20;;
13311;SDS011;34033;48.672;9.376;2023-11-22T13:23:32;1.20;;;1.13;;
13311;SDS011;34033;48.672;9.376;2023-11-22T13:25:58;1.47;;;1.30;;
13311;SDS011;34033;48.672;9.376;2023-11-22T13:28:23;1.30;;;1.20;;
13311;SDS011;34033;48.672;9.376;2023-11-22T13:30:50;1.53;;;1.43;;
13311;SDS011;34033;48.672;9.376;2023-11-22T13:33:16;1.40;;;1.30;;
13311;SDS011;34033;48.672;9.376;2023-11-22T13:35:41;1.60;;;1.37;;
13311;SDS011;34033;48.672;9.376;2023-11-22T13:38:07;1.40;;;1.20;;
13311;SDS011;34033;48.672;9.376;2023-11-22T13:40:36;1.60;;;1.40;;
13311;SDS011;34033;48.672;9.376;2023-11-22T13:43:04;1.40;;;1.30;;
13311;SDS011;34033;48.672;9.376;2023-11-22T13:45:30;1.97;;;1.40;;
13311;SDS011;34033;48.672;9.376;2023-11-22T13:47:55;1.17;;;1.13;;
13311;SDS011;34033;48.672;9.376;2023-11-22T13:50:31;1.20;;;1.20;;
13311;SDS011;34033;48.672;9.376;2023-11-22T13:52:59;1.10;;;1.10;;
13311;SDS011;34033;48.672;9.376;2023-11-22T13:55:24;1.00;;;1.00;;
13311;SDS011;34033;48.672;9.376;2023-11-22T13:57:50;1.20;;;1.10;;
13311;SDS011;34033;48.672;9.376;2023-11-22T14:00:17;1.97;;;1.37;;
13311;SDS011;34033;48.672;9.376;2023-11-22T14:02:47;4.40;;;1.10;;
13311;SDS011;34033;48.672;9.376;2023-11-22T14:05:13;1.03;;;1.03;;
13311;SDS011;34033;48.672;9.376;2023-11-22T14:07:40;1.00;;;1.00;;
13311;SDS011;34033;48.672;9.376;2023-11-22T14:10:06;1.27;;;1.20;;
13311;SDS011;34033;48.672;9.376;2023-11-22T14:12:32;1.30;;;1.30;;
13311;SDS011;34033;48.672;9.376;2023-11-22T14:14:58;1.17;;;0.97;;
13311;SDS011;34033;48.672;9.376;2023-11-22T14:17:24;2.83;;;1.40;;
13311;SDS011;34033;48.672;9.376;2023-11-22T14:19:50;1.30;;;1.20;;
13311;SDS011;34033;48.672;9.376;2023-11-22T14:22:16;1.43;;;1.33;;
13311;SDS011;34033;48.672;9.376;2023-11-22T14:24:42;1.23;;;1.23;;
13311;SDS011;34033;48.672;9.376;2023-11-22T14:27:10;1.30;;;1.20;;
13311;SDS011;34033;48.672;9.376;2023-11-22T14:29:35;1.40;;;1.30;;
13311;SDS011;34033;48.672;9.376;2023-11-22T14:32:01;1.70;;;1.60;;
13311;SDS011;34033;48.672;9.376;2023-11-22T14:34:27;1.43;;;1.33;;
13311;SDS011;34033;48.672;9.376;2023-11-22T14:36:52;1.37;;;1.30;;
13311;SDS011;34033;48.672;9.376;2023-11-22T14:39:17;1.40;;;1.30;;
13311;SDS011;34033;48.672;9.376;2023-11-22T14:41:44;2.15;;;1.95;;
13311;SDS011;34033;48.672;9.376;2023-11-22T14:44:10;9.67;;;1.77;;
13311;SDS011;34033;48.672;9.376;2023-11-22T14:46:35;1.87;;;1.73;;
13311;SDS011;34033;48.672;9.376;2023-11-22T14:49:02;1.50;;;1.40;;
13311;SDS011;34033;48.672;9.376;2023-11-22T14:51:28;1.40;;;1.30;;